Time;durP1;ratioP1;P1;durP2;ratioP2;P2;SDS_P1;SDS_P2;PMS_P1;PMS_P2;Temp;Humidity;BMP_temperature;BMP_pressure;BME280_temperature;BME280_humidity;BME280_pressure;Samples;Min_cycle;Max_cycle;Signal;HPM_P1;HPM_P2
2022/07/28 00:00:05;;;;;;;455.30;426.70;;;12.50;99.90;;;;;;5072489;28;20522;-59
2022/07/28 00:02:31;;;;;;;471.67;442.80;;;12.50;99.90;;;;;;5071151;28;20426;-60
2022/07/28 00:04:57;;;;;;;430.90;405.38;;;12.60;99.90;;;;;;5072723;28;20132;-59
2022/07/28 00:07:22;;;;;;;495.95;462.23;;;12.60;99.90;;;;;;5071690;28;20712;-59
2022/07/28 00:09:48;;;;;;;372.08;351.13;;;12.70;99.90;;;;;;5071295;28;20040;-60
2022/07/28 00:12:14;;;;;;;397.85;374.02;;;12.70;99.90;;;;;;5072727;28;20124;-60
2022/07/28 00:14:40;;;;;;;497.63;465.38;;;12.80;99.90;;;;;;5074164;28;20465;-60
2022/07/28 00:17:06;;;;;;;438.85;411.48;;;12.80;99.90;;;;;;5092596;28;20127;-60
2022/07/28 00:19:32;;;;;;;506.55;475.10;;;12.90;99.90;;;;;;5074937;28;20040;-60
2022/07/28 00:21:58;;;;;;;617.28;575.55;;;13.00;99.90;;;;;;5092887;28;20101;-60
2022/07/28 00:24:24;;;;;;;507.20;475.33;;;13.00;99.90;;;;;;5091466;28;20052;-60
2022/07/28 00:26:50;;;;;;;485.02;454.17;;;13.00;99.90;;;;;;5092887;28;20040;-60
2022/07/28 00:29:16;;;;;;;420.83;396.02;;;13.00;99.90;;;;;;5092037;28;20375;-60
2022/07/28 00:31:42;;;;;;;491.45;459.95;;;12.90;99.90;;;;;;5084335;28;20394;-60
2022/07/28 00:34:08;;;;;;;546.88;509.98;;;12.80;99.90;;;;;;5075792;28;20045;-60
2022/07/28 00:36:34;;;;;;;422.70;398.65;;;12.70;99.90;;;;;;5053801;28;20044;-60
2022/07/28 00:38:59;;;;;;;503.63;471.73;;;12.60;99.90;;;;;;5072947;28;20130;-59
2022/07/28 00:41:25;;;;;;;637.63;594.42;;;12.60;99.90;;;;;;5075102;28;20101;-59
2022/07/28 00:43:52;;;;;;;490.20;460.50;;;12.60;99.90;;;;;;5074968;28;20052;-60
2022/07/28 00:46:21;;;;;;;551.08;516.53;;;12.50;99.90;;;;;;5052616;28;20084;-60
2022/07/28 00:48:50;;;;;;;521.03;488.25;;;12.50;99.90;;;;;;5052405;28;20095;-60
2022/07/28 00:51:18;;;;;;;505.60;473.05;;;12.50;99.90;;;;;;5051651;28;20122;-60
2022/07/28 00:53:45;;;;;;;501.60;468.90;;;12.50;99.90;;;;;;5052654;28;20041;-59
2022/07/28 00:56:12;;;;;;;465.95;438.80;;;12.50;99.90;;;;;;5052235;28;20475;-60
2022/07/28 00:58:38;;;;;;;471.50;442.73;;;12.40;99.90;;;;;;5051955;28;20045;-60
2022/07/28 01:01:14;;;;;;;507.40;476.77;;;12.50;99.90;;;;;;5051943;28;20483;-59
2022/07/28 01:03:44;;;;;;;460.05;431.60;;;12.40;99.90;;;;;;5041305;28;20245;-60
2022/07/28 01:06:25;;;;;;;429.90;404.63;;;12.40;99.90;;;;;;5051823;28;20057;-60
2022/07/28 01:09:00;;;;;;;489.83;459.33;;;12.40;99.90;;;;;;5062472;28;20045;-60
2022/07/28 01:11:42;;;;;;;472.55;444.55;;;12.30;99.90;;;;;;5071449;28;20540;-59
2022/07/28 01:14:16;;;;;;;506.17;472.98;;;12.20;99.90;;;;;;5072464;28;20044;-60
2022/07/28 01:16:55;;;;;;;507.70;474.35;;;12.10;99.90;;;;;;5071465;28;20439;-60
2022/07/28 01:19:32;;;;;;;437.90;410.40;;;11.90;99.90;;;;;;5071637;28;20037;-60
2022/07/28 01:22:00;;;;;;;481.98;453.38;;;11.80;99.90;;;;;;5055977;28;20049;-59
2022/07/28 01:24:39;;;;;;;440.75;414.00;;;11.70;99.90;;;;;;5034062;28;20048;-60
2022/07/28 01:27:08;;;;;;;402.48;379.02;;;11.70;99.90;;;;;;5066246;28;20562;-60
2022/07/28 01:29:54;;;;;;;451.92;423.13;;;11.60;99.90;;;;;;5057272;28;20547;-60
2022/07/28 01:32:24;;;;;;;466.88;436.23;;;11.60;99.90;;;;;;5048910;28;20498;-59
2022/07/28 01:34:56;;;;;;;498.90;466.73;;;11.60;99.90;;;;;;5051169;28;20510;-60
2022/07/28 01:37:26;;;;;;;529.30;493.30;;;11.60;99.90;;;;;;5051261;28;20120;-60
2022/07/28 01:39:56;;;;;;;470.38;440.48;;;11.60;99.90;;;;;;5036100;28;20057;-59
2022/07/28 01:42:26;;;;;;;532.40;496.73;;;11.60;99.90;;;;;;5055995;28;20053;-60
2022/07/28 01:44:54;;;;;;;486.38;456.48;;;11.60;99.90;;;;;;5058646;28;20135;-60
2022/07/28 01:47:22;;;;;;;495.23;466.73;;;11.60;99.90;;;;;;5073716;28;20066;-59
2022/07/28 01:49:51;;;;;;;449.35;422.85;;;11.70;99.90;;;;;;5075814;28;20134;-60
2022/07/28 01:52:18;;;;;;;555.15;518.92;;;11.80;99.90;;;;;;5079143;28;20039;-59
2022/07/28 01:54:46;;;;;;;537.20;503.70;;;11.90;99.90;;;;;;5094976;28;20052;-59
2022/07/28 01:57:14;;;;;;;478.63;449.50;;;11.90;99.90;;;;;;5086313;28;20051;-60
2022/07/28 01:59:41;;;;;;;467.73;439.25;;;12.00;99.90;;;;;;5070769;28;20050;-60
2022/07/28 02:02:09;;;;;;;469.35;442.80;;;12.00;99.90;;;;;;5085372;28;20486;-60
2022/07/28 02:04:38;;;;;;;477.83;450.35;;;12.20;99.90;;;;;;5075609;28;20047;-60
2022/07/28 02:07:05;;;;;;;473.15;443.33;;;12.20;99.90;;;;;;5075513;28;20099;-60
2022/07/28 02:09:33;;;;;;;451.50;425.55;;;12.30;99.90;;;;;;5074235;28;20056;-59
2022/07/28 02:12:00;;;;;;;434.33;410.42;;;12.30;99.90;;;;;;5075168;28;20387;-60
2022/07/28 02:14:28;;;;;;;427.85;404.85;;;12.30;99.90;;;;;;5075450;28;20053;-59
2022/07/28 02:16:57;;;;;;;460.73;434.48;;;12.30;99.90;;;;;;5074167;28;20048;-60
2022/07/28 02:19:25;;;;;;;422.42;399.17;;;12.30;99.90;;;;;;5075063;28;20541;-59
2022/07/28 02:21:53;;;;;;;453.52;428.17;;;12.30;99.90;;;;;;5074452;28;20044;-59
2022/07/28 02:24:25;;;;;;;464.33;438.55;;;12.30;99.90;;;;;;5056788;28;20045;-59
2022/07/28 02:26:58;;;;;;;429.55;406.30;;;12.30;99.90;;;;;;5074996;28;20115;-59
2022/07/28 02:29:26;;;;;;;459.25;433.33;;;12.40;99.90;;;;;;5092087;28;20127;-59
2022/07/28 02:31:56;;;;;;;476.30;449.48;;;12.40;99.90;;;;;;5095056;28;20048;-59
2022/07/28 02:34:23;;;;;;;434.40;410.08;;;12.40;99.90;;;;;;5095355;28;20082;-59
2022/07/28 02:36:57;;;;;;;459.98;434.58;;;12.40;99.90;;;;;;5087168;28;20044;-59
2022/07/28 02:39:29;;;;;;;459.15;433.40;;;12.40;99.90;;;;;;5074711;28;20056;-59
2022/07/28 02:42:03;;;;;;;489.52;461.08;;;12.40;99.90;;;;;;5074832;28;20047;-60
2022/07/28 02:44:35;;;;;;;456.70;431.15;;;12.40;99.90;;;;;;5073779;28;20123;-59
2022/07/28 02:47:06;;;;;;;515.65;485.55;;;12.40;99.90;;;;;;5073789;28;20090;-59
2022/07/28 02:49:34;;;;;;;454.30;428.60;;;12.40;99.90;;;;;;5074945;28;20479;-59
2022/07/28 02:52:02;;;;;;;509.58;480.17;;;12.50;99.90;;;;;;5073751;28;20045;-60
2022/07/28 02:54:29;;;;;;;358.58;340.85;;;12.50;99.90;;;;;;5094085;28;20063;-60
2022/07/28 02:56:57;;;;;;;502.83;474.55;;;12.50;99.90;;;;;;5086889;28;20040;-60
2022/07/28 02:59:24;;;;;;;493.63;465.65;;;12.40;99.90;;;;;;5074487;28;20159;-60
2022/07/28 03:01:51;;;;;;;518.05;487.50;;;12.30;99.90;;;;;;5073797;28;20052;-59
2022/07/28 03:07:05;;;;;;;418.27;395.55;;;12.50;99.90;;;;;;5094592;28;20048;-59
2022/07/28 03:09:38;;;;;;;457.48;429.85;;;12.50;99.90;;;;;;5094264;28;20379;-59
2022/07/28 03:12:04;;;;;;;;;;;12.50;99.90;;;;;;5088492;28;20036;-60
2022/07/28 03:14:29;;;;;;;386.75;366.50;;;12.50;99.90;;;;;;5074322;28;19938;-59
2022/07/28 03:16:55;;;;;;;435.05;411.48;;;12.50;99.90;;;;;;5073550;28;20098;-60
2022/07/28 03:19:21;;;;;;;429.70;406.30;;;12.50;99.90;;;;;;5073449;28;20053;-60
2022/07/28 03:21:48;;;;;;;444.73;419.52;;;12.50;99.90;;;;;;5073729;28;20045;-60
2022/07/28 03:24:16;;;;;;;464.85;437.90;;;12.50;99.90;;;;;;5073869;28;20081;-59
2022/07/28 03:26:52;;;;;;;476.40;447.17;;;12.50;99.90;;;;;;5073171;28;20045;-60
2022/07/28 03:29:18;;;;;;;401.48;379.98;;;12.50;99.90;;;;;;5073686;28;20071;-60
2022/07/28 03:31:46;;;;;;;478.85;451.08;;;12.50;99.90;;;;;;5093504;28;20092;-59
2022/07/28 03:34:13;;;;;;;444.77;418.42;;;12.60;99.90;;;;;;5075232;28;20056;-60
2022/07/28 03:36:44;;;;;;;425.15;400.38;;;12.70;99.90;;;;;;5075834;28;20055;-60
2022/07/28 03:39:11;;;;;;;475.10;446.58;;;12.60;99.90;;;;;;5092414;28;20036;-59
2022/07/28 03:41:38;;;;;;;466.38;438.92;;;12.60;99.90;;;;;;5055761;28;20498;-60
2022/07/28 03:44:04;;;;;;;412.42;389.23;;;12.60;99.90;;;;;;5073040;28;20041;-59
2022/07/28 03:46:31;;;;;;;482.05;453.88;;;12.60;99.90;;;;;;5072254;28;20505;-60
2022/07/28 03:48:57;;;;;;;434.27;410.42;;;12.50;99.90;;;;;;5072500;28;20111;-60
2022/07/28 03:51:24;;;;;;;483.83;455.20;;;12.50;99.90;;;;;;5072941;28;20490;-60
2022/07/28 03:53:50;;;;;;;478.40;449.65;;;12.50;99.90;;;;;;5071661;28;20175;-59
2022/07/28 03:56:16;;;;;;;467.38;441.50;;;12.60;99.90;;;;;;5076505;28;20127;-60
2022/07/28 03:58:41;;;;;;;493.67;465.38;;;12.60;99.90;;;;;;5072579;28;20041;-59
2022/07/28 04:01:07;;;;;;;477.17;450.13;;;12.60;99.90;;;;;;5071491;28;20083;-59
2022/07/28 04:03:33;;;;;;;496.60;468.50;;;12.70;99.90;;;;;;5073088;28;20033;-60
2022/07/28 04:05:59;;;;;;;502.92;471.60;;;12.80;99.90;;;;;;5085056;28;20123;-60
2022/07/28 04:08:24;;;;;;;503.20;471.88;;;12.70;99.90;;;;;;5074143;28;20051;-60
2022/07/28 04:10:52;;;;;;;476.98;448.48;;;12.70;99.90;;;;;;5093297;28;20137;-60
2022/07/28 04:13:18;;;;;;;468.30;441.17;;;12.80;99.90;;;;;;5093406;28;20144;-60
2022/07/28 04:15:44;;;;;;;515.28;483.67;;;12.80;99.90;;;;;;5071631;28;20119;-60
2022/07/28 04:18:10;;;;;;;504.48;475.00;;;12.90;99.90;;;;;;5073098;28;20084;-60
2022/07/28 04:20:36;;;;;;;514.60;482.92;;;12.90;99.90;;;;;;5073159;28;20040;-60
2022/07/28 04:23:02;;;;;;;506.95;477.23;;;13.00;99.90;;;;;;5070793;28;20044;-60
2022/07/28 04:25:28;;;;;;;535.65;503.98;;;13.00;99.90;;;;;;5072554;28;20478;-59
2022/07/28 04:27:54;;;;;;;476.42;450.35;;;13.00;99.90;;;;;;5071866;28;20107;-60
2022/07/28 04:30:23;;;;;;;517.28;485.85;;;13.10;99.90;;;;;;5071436;28;20131;-60
2022/07/28 04:32:50;;;;;;;503.08;473.35;;;13.20;99.90;;;;;;5072016;28;20037;-60
2022/07/28 04:35:18;;;;;;;467.67;440.90;;;13.20;99.90;;;;;;5072093;28;20071;-60
2022/07/28 04:37:45;;;;;;;528.30;496.30;;;13.30;99.90;;;;;;5072680;28;20044;-60
2022/07/28 04:40:12;;;;;;;535.92;503.10;;;13.30;99.90;;;;;;5074492;28;20139;-59
2022/07/28 04:42:38;;;;;;;562.40;525.92;;;13.30;99.90;;;;;;5091900;28;20789;-60
2022/07/28 04:45:07;;;;;;;530.78;499.25;;;13.30;99.90;;;;;;5092705;28;20417;-60
2022/07/28 04:47:33;;;;;;;463.35;436.83;;;13.40;99.90;;;;;;5093003;28;20559;-60
2022/07/28 04:49:59;;;;;;;476.08;448.45;;;13.40;99.90;;;;;;5091537;28;20044;-60
2022/07/28 04:52:25;;;;;;;507.27;476.60;;;13.50;99.90;;;;;;5074475;28;20048;-59
2022/07/28 04:54:52;;;;;;;557.63;520.60;;;13.50;99.90;;;;;;5093151;28;20048;-60
2022/07/28 04:57:18;;;;;;;511.38;480.27;;;13.60;99.90;;;;;;5081728;28;20037;-59
2022/07/28 04:59:44;;;;;;;482.77;454.40;;;13.70;99.90;;;;;;5054538;28;20360;-60
2022/07/28 05:02:11;;;;;;;482.10;452.67;;;13.70;99.90;;;;;;5072563;28;20132;-60
2022/07/28 05:04:37;;;;;;;465.85;439.17;;;13.70;99.90;;;;;;5071957;28;20087;-59
2022/07/28 05:07:04;;;;;;;507.73;476.83;;;13.80;99.90;;;;;;5076891;28;20040;-60
2022/07/28 05:09:30;;;;;;;518.20;487.52;;;13.80;99.90;;;;;;5092504;28;20056;-60
2022/07/28 05:11:57;;;;;;;579.67;544.45;;;13.80;99.90;;;;;;5095280;28;20135;-60
2022/07/28 05:14:23;;;;;;;547.40;513.40;;;13.80;99.90;;;;;;5096236;28;20504;-60
2022/07/28 05:16:49;;;;;;;464.60;438.77;;;13.80;99.90;;;;;;5096136;28;20121;-59
2022/07/28 05:19:14;;;;;;;505.48;476.15;;;13.80;99.90;;;;;;5095939;28;20470;-59
2022/07/28 05:21:40;;;;;;;494.88;465.95;;;13.80;99.90;;;;;;5096134;28;20047;-60
2022/07/28 05:24:06;;;;;;;437.05;413.85;;;13.80;99.90;;;;;;5096669;28;20469;-60
2022/07/28 05:26:32;;;;;;;430.75;407.70;;;13.70;99.90;;;;;;5095496;28;20118;-60
2022/07/28 05:28:58;;;;;;;461.55;435.52;;;13.70;99.90;;;;;;5093054;28;20239;-59
2022/07/28 05:31:24;;;;;;;505.50;474.88;;;13.70;99.90;;;;;;5076204;28;20044;-60
2022/07/28 05:33:50;;;;;;;482.92;455.42;;;13.70;99.90;;;;;;5075014;28;20044;-59
2022/07/28 05:36:16;;;;;;;479.90;452.02;;;13.70;99.90;;;;;;5075563;28;20127;-59
2022/07/28 05:38:42;;;;;;;493.67;463.65;;;13.70;99.90;;;;;;5075246;28;20076;-59
2022/07/28 05:41:08;;;;;;;440.02;416.25;;;13.80;99.90;;;;;;5075908;28;20048;-59
2022/07/28 05:43:36;;;;;;;440.17;414.95;;;13.80;99.90;;;;;;5068377;28;20048;-59
2022/07/28 05:46:03;;;;;;;446.20;420.13;;;13.80;99.90;;;;;;5075194;28;20052;-60
2022/07/28 05:48:29;;;;;;;445.27;419.15;;;13.80;99.90;;;;;;5073905;28;20448;-59
2022/07/28 05:50:55;;;;;;;407.50;386.00;;;13.70;99.90;;;;;;5046201;28;20050;-60
2022/07/28 05:53:23;;;;;;;531.78;499.17;;;13.70;99.90;;;;;;5047472;28;20128;-59
2022/07/28 05:55:49;;;;;;;465.67;438.52;;;13.70;99.90;;;;;;5036453;28;20084;-59
2022/07/28 05:58:19;;;;;;;507.80;476.23;;;13.70;99.90;;;;;;5056385;28;20041;-59
2022/07/28 06:00:45;;;;;;;507.92;477.10;;;13.70;99.90;;;;;;5038557;28;20055;-59
2022/07/28 06:03:10;;;;;;;498.52;468.63;;;13.70;99.90;;;;;;5052055;28;20040;-60
2022/07/28 06:05:36;;;;;;;459.30;433.38;;;13.80;99.90;;;;;;5054155;28;20120;-60
2022/07/28 06:08:02;;;;;;;435.80;411.17;;;13.80;99.90;;;;;;5053529;28;20050;-60
2022/07/28 06:10:57;;;;;;;467.48;440.25;;;13.80;99.90;;;;;;5049408;28;20049;-60
2022/07/28 06:13:15;;;;;;;468.45;441.75;;;13.80;99.90;;;;;;5049852;28;20045;-60
2022/07/28 06:15:41;;;;;;;591.20;553.70;;;13.80;99.90;;;;;;5051121;28;20503;-60
2022/07/28 06:18:07;;;;;;;550.80;516.85;;;13.90;99.90;;;;;;5052851;28;20561;-59
2022/07/28 06:20:33;;;;;;;539.58;506.13;;;13.90;99.90;;;;;;5051772;28;20073;-60
2022/07/28 06:22:59;;;;;;;479.77;451.67;;;14.00;99.90;;;;;;5050533;28;20099;-60
2022/07/28 06:25:27;;;;;;;415.42;393.05;;;14.10;99.90;;;;;;5051505;28;20507;-59
2022/07/28 06:27:55;;;;;;;437.63;413.65;;;14.10;99.90;;;;;;5030149;28;20124;-60
2022/07/28 06:30:21;;;;;;;395.33;373.90;;;14.20;99.90;;;;;;5035997;28;20053;-60
2022/07/28 06:32:47;;;;;;;403.77;382.95;;;14.30;99.90;;;;;;5054789;28;20144;-59
2022/07/28 06:35:15;;;;;;;409.60;388.77;;;14.30;99.90;;;;;;5053359;28;20053;-60
2022/07/28 06:37:43;;;;;;;449.75;425.02;;;14.30;99.90;;;;;;5053846;28;20056;-60
2022/07/28 06:40:10;;;;;;;490.15;462.70;;;14.40;99.90;;;;;;5054349;28;20080;-59
2022/07/28 06:42:37;;;;;;;495.50;467.55;;;14.50;99.90;;;;;;5052313;28;20118;-60
2022/07/28 06:45:05;;;;;;;454.17;427.73;;;14.50;99.90;;;;;;5048375;28;20037;-60
2022/07/28 06:47:30;;;;;;;459.73;434.05;;;14.60;99.90;;;;;;5046211;28;20043;-60
2022/07/28 06:49:56;;;;;;;453.25;428.23;;;14.60;99.90;;;;;;5052890;28;20048;-60
2022/07/28 06:52:22;;;;;;;483.83;455.55;;;14.60;99.90;;;;;;5053937;28;20037;-60
2022/07/28 06:54:50;;;;;;;587.15;549.13;;;14.60;99.90;;;;;;5057079;28;20041;-59
2022/07/28 06:57:18;;;;;;;476.90;450.05;;;14.70;99.90;;;;;;5054098;28;20052;-60
2022/07/28 06:59:45;;;;;;;514.13;484.98;;;14.70;99.90;;;;;;5033548;28;20056;-59
2022/07/28 07:02:11;;;;;;;571.35;537.63;;;14.80;99.90;;;;;;5053469;28;20049;-60
2022/07/28 07:04:37;;;;;;;504.17;476.25;;;14.80;99.90;;;;;;5052270;28;20053;-60
2022/07/28 07:07:03;;;;;;;531.35;500.35;;;14.90;99.90;;;;;;5053324;28;20067;-60
2022/07/28 07:09:30;;;;;;;766.30;714.83;;;14.90;99.90;;;;;;5053909;28;20048;-60
2022/07/28 07:11:56;;;;;;;345.55;329.00;;;15.00;99.90;;;;;;5054983;28;20625;-60
2022/07/28 07:14:22;;;;;;;495.33;470.20;;;15.10;99.90;;;;;;5051279;28;20076;-60
2022/07/28 07:16:48;;;;;;;434.60;412.98;;;15.20;99.90;;;;;;5053291;28;20135;-60
2022/07/28 07:19:14;;;;;;;379.15;360.05;;;15.20;99.90;;;;;;5052456;28;20052;-59
2022/07/28 07:21:40;;;;;;;526.17;493.40;;;15.20;99.90;;;;;;5053135;28;20041;-60
2022/07/28 07:24:06;;;;;;;532.78;501.45;;;15.20;99.90;;;;;;5049772;28;20060;-60
2022/07/28 07:26:32;;;;;;;468.52;442.85;;;15.30;99.90;;;;;;5035021;28;20053;-60
2022/07/28 07:28:58;;;;;;;518.28;487.92;;;15.30;99.90;;;;;;5052294;28;20164;-60
2022/07/28 07:31:23;;;;;;;554.05;522.50;;;15.20;99.90;;;;;;5052494;28;20538;-60
2022/07/28 07:33:49;;;;;;;555.67;521.95;;;15.10;99.90;;;;;;5048266;28;20075;-60
2022/07/28 07:36:15;;;;;;;552.63;520.28;;;15.10;99.90;;;;;;5045221;28;20124;-60
2022/07/28 07:38:41;;;;;;;596.42;559.88;;;15.20;99.90;;;;;;5053129;28;20069;-60
2022/07/28 07:41:07;;;;;;;492.08;465.13;;;15.40;99.90;;;;;;5052117;28;20411;-60
2022/07/28 07:43:32;;;;;;;431.83;409.83;;;15.50;99.90;;;;;;5061802;28;20439;-60
2022/07/28 07:45:58;;;;;;;472.92;446.63;;;15.70;99.90;;;;;;5072050;28;20057;-60
2022/07/28 07:48:24;;;;;;;453.95;429.63;;;15.80;99.90;;;;;;5069837;28;20044;-60
2022/07/28 07:50:50;;;;;;;640.55;599.08;;;15.80;99.90;;;;;;5072205;28;20044;-60
2022/07/28 07:53:16;;;;;;;408.20;386.60;;;15.90;99.90;;;;;;5071339;28;20483;-60
2022/07/28 07:55:41;;;;;;;458.27;433.55;;;15.90;99.90;;;;;;5074605;28;20048;-60
2022/07/28 07:58:07;;;;;;;521.28;491.13;;;16.10;99.90;;;;;;5072023;28;20102;-60
2022/07/28 08:00:33;;;;;;;532.13;502.38;;;16.10;99.90;;;;;;5071303;28;20036;-60
2022/07/28 08:02:59;;;;;;;540.40;510.58;;;16.30;99.90;;;;;;5072065;28;20044;-60
2022/07/28 08:05:26;;;;;;;525.35;496.67;;;16.50;99.90;;;;;;5072033;28;20045;-60
2022/07/28 08:07:52;;;;;;;503.55;475.77;;;16.80;99.90;;;;;;5071547;28;20041;-60
2022/07/28 08:10:18;;;;;;;499.85;472.42;;;17.00;99.90;;;;;;5072021;28;20453;-61
2022/07/28 08:12:43;;;;;;;445.95;422.27;;;17.20;99.90;;;;;;5072542;28;20048;-60
2022/07/28 08:15:10;;;;;;;587.78;553.90;;;17.50;99.90;;;;;;5068723;28;20044;-60
2022/07/28 08:17:36;;;;;;;487.40;460.88;;;17.70;99.90;;;;;;5071782;28;20040;-60
2022/07/28 08:20:03;;;;;;;565.28;532.03;;;17.80;99.90;;;;;;5071360;28;20490;-60
2022/07/28 08:22:28;;;;;;;555.60;523.75;;;18.00;99.90;;;;;;5073768;28;20089;-60
2022/07/28 08:24:54;;;;;;;634.60;596.72;;;18.20;99.90;;;;;;5072072;28;20040;-60
2022/07/28 08:27:20;;;;;;;597.03;561.90;;;18.40;99.90;;;;;;5071739;28;20048;-60
2022/07/28 08:29:46;;;;;;;546.75;515.83;;;18.70;99.90;;;;;;5071299;28;20119;-60
2022/07/28 08:32:12;;;;;;;693.67;649.58;;;18.80;99.90;;;;;;5081354;28;20561;-60
2022/07/28 08:34:38;;;;;;;514.47;487.45;;;18.90;99.90;;;;;;5070286;28;20041;-60
2022/07/28 08:37:04;;;;;;;588.05;554.95;;;19.10;99.90;;;;;;5053255;28;20517;-60
2022/07/28 08:39:32;;;;;;;606.20;570.72;;;19.20;99.90;;;;;;5071011;28;20055;-61
2022/07/28 08:42:03;;;;;;;552.58;522.22;;;19.30;99.90;;;;;;5069667;28;20075;-61
2022/07/28 08:44:46;;;;;;;513.58;485.52;;;19.40;99.90;;;;;;5068887;28;20072;-60
2022/07/28 08:47:12;;;;;;;463.75;440.13;;;19.40;99.90;;;;;;5070044;28;20055;-60
2022/07/28 08:49:41;;;;;;;536.35;506.00;;;19.50;99.90;;;;;;5072305;28;20043;-60
2022/07/28 08:52:12;;;;;;;506.17;478.48;;;19.70;99.90;;;;;;5071813;28;20045;-60
2022/07/28 08:54:44;;;;;;;380.95;362.77;;;19.80;99.90;;;;;;5071829;28;20040;-60
2022/07/28 08:57:19;;;;;;;640.20;601.67;;;19.90;99.90;;;;;;5072763;28;20056;-61
2022/07/28 08:59:47;;;;;;;541.38;512.38;;;20.10;99.90;;;;;;5071325;28;20063;-60
2022/07/28 09:02:13;;;;;;;551.50;521.65;;;20.20;99.90;;;;;;5071789;28;20477;-61
2022/07/28 09:04:41;;;;;;;536.88;508.08;;;20.50;99.90;;;;;;5070646;28;20032;-60
2022/07/28 09:07:07;;;;;;;557.38;526.60;;;20.70;99.70;;;;;;5070724;28;20055;-60
2022/07/28 09:09:33;;;;;;;428.50;407.90;;;20.90;99.60;;;;;;5071915;28;20063;-61
2022/07/28 09:12:04;;;;;;;461.25;437.95;;;21.10;99.40;;;;;;5071004;28;20478;-60
2022/07/28 09:14:31;;;;;;;547.40;518.38;;;21.20;99.20;;;;;;5074775;28;20048;-60
2022/07/28 09:17:00;;;;;;;461.38;438.33;;;21.30;98.40;;;;;;5091720;28;20048;-61
2022/07/28 09:19:27;;;;;;;399.50;380.13;;;21.40;98.20;;;;;;5092085;28;20040;-60
2022/07/28 09:21:55;;;;;;;382.67;364.45;;;21.60;97.90;;;;;;5092603;28;20076;-61
2022/07/28 09:24:34;;;;;;;526.08;496.98;;;21.80;97.80;;;;;;5091377;28;20051;-61
2022/07/28 09:27:05;;;;;;;712.95;668.33;;;22.00;97.40;;;;;;5092202;28;20109;-61
2022/07/28 09:29:31;;;;;;;542.67;513.08;;;22.10;96.30;;;;;;5064104;28;20386;-60
2022/07/28 09:31:57;;;;;;;536.88;507.52;;;22.10;96.10;;;;;;5068955;28;20050;-60
2022/07/28 09:34:23;;;;;;;658.78;618.47;;;22.10;95.60;;;;;;5035030;28;20118;-61
2022/07/28 09:36:49;;;;;;;744.47;696.28;;;22.10;95.40;;;;;;5071691;28;20464;-61
2022/07/28 09:39:32;;;;;;;582.60;547.53;;;22.10;95.30;;;;;;5045674;28;20106;-60
2022/07/28 09:41:58;;;;;;;;;;;22.20;95.40;;;;;;5062895;28;20143;-60
2022/07/28 09:44:26;;;;;;;1592.47;835.88;;;22.30;95.60;;;;;;5061710;28;20349;-60
2022/07/28 09:46:52;;;;;;;1999.90;999.90;;;22.30;94.90;;;;;;5080259;28;20045;-60
2022/07/28 09:49:18;;;;;;;1999.90;999.90;;;22.30;94.60;;;;;;5071800;28;20048;-60
2022/07/28 09:52:01;;;;;;;1588.50;830.97;;;22.30;93.90;;;;;;5089477;28;20457;-60
2022/07/28 09:54:27;;;;;;;1046.03;754.13;;;22.40;94.10;;;;;;5083555;28;20123;-60
2022/07/28 09:56:53;;;;;;;1999.90;999.90;;;22.50;93.70;;;;;;5068433;28;20131;-60
2022/07/28 09:59:19;;;;;;;1999.90;999.90;;;22.60;93.30;;;;;;5072943;28;20119;-61
2022/07/28 10:01:51;;;;;;;1999.90;999.90;;;22.80;93.40;;;;;;5071938;28;20537;-60
2022/07/28 10:04:29;;;;;;;1999.90;999.90;;;23.00;93.20;;;;;;5047505;28;20124;-61
2022/07/28 10:07:08;;;;;;;1597.50;838.65;;;23.30;93.20;;;;;;5054280;28;20676;-60
2022/07/28 10:09:34;;;;;;;1999.90;999.90;;;23.60;92.90;;;;;;5069873;28;20140;-61
2022/07/28 10:12:18;;;;;;;1999.90;999.90;;;23.90;92.20;;;;;;5072866;28;20048;-61
2022/07/28 10:14:45;;;;;;;1999.90;999.90;;;24.10;91.40;;;;;;5070720;28;20479;-60
2022/07/28 10:17:25;;;;;;;1999.90;999.90;;;24.10;91.10;;;;;;5071386;28;20513;-61
2022/07/28 10:19:53;;;;;;;1999.90;999.90;;;24.10;91.30;;;;;;5074335;28;20503;-61
2022/07/28 10:22:20;;;;;;;1607.15;847.78;;;24.40;90.70;;;;;;5070966;28;20059;-61
2022/07/28 10:24:51;;;;;;;1999.90;999.90;;;24.80;89.80;;;;;;5063263;28;20041;-61
2022/07/28 10:27:19;;;;;;;1999.90;999.90;;;24.80;90.00;;;;;;5069801;28;20673;-61
2022/07/28 10:29:47;;;;;;;1999.90;999.90;;;25.30;88.80;;;;;;5075003;28;20036;-61
2022/07/28 10:32:13;;;;;;;1999.90;999.90;;;25.70;87.50;;;;;;5074578;28;20549;-61
2022/07/28 10:34:47;;;;;;;1999.90;999.90;;;26.10;86.30;;;;;;5078709;28;20040;-61
2022/07/28 10:37:19;;;;;;;1999.90;999.90;;;26.60;84.30;;;;;;5076737;28;20106;-61
2022/07/28 10:39:54;;;;;;;1999.90;999.90;;;27.00;82.40;;;;;;5093642;28;20551;-61
2022/07/28 10:42:20;;;;;;;1656.05;894.30;;;27.10;78.20;;;;;;5073912;28;20044;-61
2022/07/28 10:44:46;;;;;;;803.40;745.97;;;27.10;78.40;;;;;;5088979;28;20113;-61
2022/07/28 10:47:13;;;;;;;866.63;804.35;;;26.70;77.80;;;;;;5094426;28;20047;-61
2022/07/28 10:49:40;;;;;;;881.53;817.20;;;25.90;76.40;;;;;;5070286;28;20474;-61
2022/07/28 10:52:08;;;;;;;900.10;834.65;;;25.30;77.10;;;;;;5048406;28;20053;-61
2022/07/28 10:54:41;;;;;;;899.10;833.70;;;24.70;77.10;;;;;;5070968;28;20052;-61
2022/07/28 10:57:11;;;;;;;933.20;863.50;;;24.10;77.60;;;;;;5068566;28;20037;-61
2022/07/28 10:59:45;;;;;;;901.03;836.65;;;23.50;79.30;;;;;;5049216;28;20044;-61
2022/07/28 11:02:48;;;;;;;872.65;812.28;;;23.10;80.50;;;;;;5053711;28;20052;-61
2022/07/28 11:05:35;;;;;;;832.38;775.50;;;22.70;81.00;;;;;;5070468;28;20048;-61
2022/07/28 11:08:05;;;;;;;886.35;823.08;;;22.30;83.40;;;;;;5072162;28;20041;-61
2022/07/28 11:10:42;;;;;;;862.05;802.38;;;21.90;82.50;;;;;;5070958;28;20053;-61
2022/07/28 11:13:21;;;;;;;890.45;827.20;;;21.70;83.50;;;;;;5070702;28;20036;-61
2022/07/28 11:15:47;;;;;;;870.05;809.03;;;21.70;83.10;;;;;;5070753;28;20041;-60
2022/07/28 11:18:13;;;;;;;873.92;811.83;;;21.60;83.30;;;;;;5072742;28;20128;-61
2022/07/28 11:21:04;;;;;;;871.63;810.65;;;21.60;83.50;;;;;;5074393;28;20139;-61
2022/07/28 11:23:42;;;;;;;882.05;818.50;;;21.70;83.70;;;;;;5069975;28;20056;-60
2022/07/28 11:26:20;;;;;;;898.60;833.30;;;21.70;82.90;;;;;;5070956;28;20119;-60
2022/07/28 11:29:09;;;;;;;883.72;819.15;;;21.90;79.30;;;;;;5055533;28;20105;-61
2022/07/28 11:31:45;;;;;;;890.90;823.42;;;22.10;82.50;;;;;;5070768;28;20041;-60
2022/07/28 11:34:20;;;;;;;954.60;880.20;;;22.40;80.50;;;;;;5072821;28;20049;-61
2022/07/28 11:37:06;;;;;;;802.67;740.72;;;22.40;79.60;;;;;;5057672;28;20051;-61
2022/07/28 11:39:34;;;;;;;867.83;800.80;;;22.50;80.10;;;;;;5053727;28;20055;-61
2022/07/28 11:42:22;;;;;;;851.40;784.97;;;22.60;79.20;;;;;;5055033;28;20036;-61
2022/07/28 11:44:48;;;;;;;799.13;736.70;;;22.80;79.50;;;;;;5048738;28;20491;-61
2022/07/28 11:47:17;;;;;;;528.08;485.13;;;23.20;78.90;;;;;;5049039;28;20037;-61
2022/07/28 11:49:44;;;;;;;1623.03;861.53;;;23.60;76.50;;;;;;5046640;28;20041;-61
2022/07/28 11:52:13;;;;;;;1999.90;999.90;;;24.40;75.90;;;;;;5027928;28;20188;-61
2022/07/28 11:54:39;;;;;;;1999.90;999.90;;;25.30;74.30;;;;;;5052346;28;20112;-61
2022/07/28 11:57:08;;;;;;;1999.90;999.90;;;25.90;72.30;;;;;;5052622;28;20563;-61
2022/07/28 11:59:44;;;;;;;1999.90;999.90;;;26.40;70.70;;;;;;5052749;28;20037;-61
2022/07/28 12:02:15;;;;;;;612.63;565.20;;;26.80;67.40;;;;;;5033999;28;20402;-61
2022/07/28 12:04:41;;;;;;;673.78;620.00;;;26.70;69.70;;;;;;5052632;28;20060;-61
2022/07/28 12:07:10;;;;;;;1671.07;907.25;;;27.10;70.50;;;;;;5052270;28;20044;-61
2022/07/28 12:09:37;;;;;;;764.88;706.85;;;27.10;69.40;;;;;;5052448;28;20049;-61
2022/07/28 12:12:05;;;;;;;613.13;564.35;;;26.80;69.90;;;;;;5052814;28;20116;-61
2022/07/28 12:14:37;;;;;;;1999.90;999.90;;;26.80;70.80;;;;;;5051672;28;20052;-61
2022/07/28 12:17:04;;;;;;;1999.90;999.90;;;27.20;70.20;;;;;;5044569;28;20126;-61